This is the latest recevied weather packets stored in our database for station/object LRCK. If no packets are shown the sender has not sent any weather packets the latest 10 day(s).
| Time | Temp. | Humidity | Pressure | Rain* | Wind** | Luminosity | Snow |
|---|---|---|---|---|---|---|---|
| 1777200495 | 22.78° C | 36% | 1008 hPa | - | - | - | - |
| 1777199598 | 22.78° C | 36% | 1008 hPa | - | - | - | - |
| 1777198697 | 22.78° C | 36% | 1008 hPa | - | - | - | - |
| 1777197797 | 22.78° C | 36% | 1008 hPa | - | - | - | - |
| 1777196898 | 22.22° C | 38% | 1009 hPa | - | - | - | - |
| 1777195997 | 22.22° C | 38% | 1009 hPa | - | - | - | - |
| 1777195097 | 22.22° C | 41% | 1009 hPa | - | - | - | - |
| 1777194198 | 22.22° C | 41% | 1009 hPa | - | - | - | - |
| 1777193298 | 21.11° C | 43% | 1009 hPa | - | - | - | - |
| 1777192397 | 21.11° C | 43% | 1009 hPa | - | - | - | - |
| 1777191507 | 20° C | 46% | 1010 hPa | - | - | - | - |
| 1777190598 | 20° C | 46% | 1010 hPa | - | - | - | - |
| 1777189694 | 18.89° C | 52% | 1010 hPa | - | - | - | - |
| 1777188794 | 18.89° C | 52% | 1010 hPa | - | - | - | - |
| 1777187895 | 17.78° C | 60% | 1010 hPa | - | - | - | - |
| 1777186998 | 17.78° C | 60% | 1010 hPa | - | - | - | - |
| 1777186094 | 16.11° C | 68% | 1010 hPa | - | - | - | - |
| 1777185197 | 16.11° C | 68% | 1010 hPa | - | - | - | - |
| 1777184298 | 15° C | 68% | 1010 hPa | - | - | - | - |
| 1777183398 | 15° C | 68% | 1010 hPa | - | - | - | - |
| 1777182497 | 12.78° C | 77% | 1010 hPa | - | - | - | - |
| 1777181600 | 12.78° C | 77% | 1010 hPa | - | - | - | - |
| 1777180697 | 11.11° C | 82% | 1010 hPa | - | - | - | - |
| 1777179798 | 11.11° C | 82% | 1010 hPa | - | - | - | - |
| 1777178918 | 8.89° C | 94% | 1010 hPa | - | - | - | - |
* Rain since midnight (hover to see other rain measurements)
** Current wind speed in m/s (hover to see current wind gust speed)